Time;durP1;ratioP1;P1;durP2;ratioP2;P2;SDS_P1;SDS_P2;PMS_P1;PMS_P2;Temp;Humidity;BMP_temperature;BMP_pressure;BME280_temperature;BME280_humidity;BME280_pressure;Samples;Min_cycle;Max_cycle;Signal;HPM_P1;HPM_P2
2021/10/16 02:00:30;;;;;;;2.90;2.70;;;;;;;;;;5070569;23;20623;-94
2021/10/16 02:02:58;;;;;;;3.27;3.07;;;;;;;;;;4974389;28;20270;-93
2021/10/16 02:05:25;;;;;;;3.10;2.90;;;;;;;;;;4974201;28;20204;-94
2021/10/16 02:07:52;;;;;;;3.07;2.87;;;;;;;;;;4975408;28;20675;-92
2021/10/16 02:10:20;;;;;;;3.07;2.87;;;;;;;;;;4975897;28;20227;-92
2021/10/16 02:12:47;;;;;;;3.17;2.97;;;;;;;;;;4980851;28;20303;-94
2021/10/16 02:15:14;;;;;;;3.43;2.80;;;;;;;;;;4981454;28;20261;-92
2021/10/16 02:17:43;;;;;;;3.37;3.07;;;;;;;;;;4982555;28;20341;-94
2021/10/16 02:20:11;;;;;;;3.07;2.87;;;;;;;;;;4978575;28;20283;-95
2021/10/16 02:22:38;;;;;;;3.13;2.53;;;;;;;;;;4982102;28;20214;-93
2021/10/16 02:25:07;;;;;;;3.80;3.50;;;;;;;;;;4978199;28;20226;-96
2021/10/16 02:27:35;;;;;;;3.10;2.90;;;;;;;;;;4978612;28;20692;-94
2021/10/16 02:30:02;;;;;;;3.60;3.37;;;;;;;;;;4977867;28;20210;-92
2021/10/16 02:32:29;;;;;;;3.47;3.17;;;;;;;;;;4977728;28;20256;-94
2021/10/16 02:34:58;;;;;;;3.27;2.93;;;;;;;;;;4977693;28;20228;-92
2021/10/16 02:37:25;;;;;;;3.73;2.83;;;;;;;;;;4978291;28;20283;-92
2021/10/16 02:39:53;;;;;;;3.17;2.83;;;;;;;;;;4979134;28;20236;-94
2021/10/16 02:42:20;;;;;;;3.10;2.90;;;;;;;;;;4979206;28;20219;-94
2021/10/16 02:44:49;;;;;;;3.50;3.30;;;;;;;;;;4978964;28;20203;-94
2021/10/16 02:47:16;;;;;;;4.10;3.70;;;;;;;;;;4977549;28;20209;-95
2021/10/16 02:49:44;;;;;;;5.13;3.87;;;;;;;;;;4978752;28;20288;-94
2021/10/16 02:52:13;;;;;;;3.60;3.30;;;;;;;;;;4981125;28;20290;-95
2021/10/16 02:57:22;;;;;;;2.83;2.63;;;;;;;;;;5237837;23;20264;-95
2021/10/16 02:59:50;;;;;;;3.50;3.23;;;;;;;;;;4982752;28;20220;-95
2021/10/16 03:02:20;;;;;;;6.20;5.70;;;;;;;;;;4980549;28;20282;-95
2021/10/16 03:04:47;;;;;;;4.73;4.33;;;;;;;;;;4980353;28;20204;-95
2021/10/16 03:07:20;;;;;;;3.10;2.90;;;;;;;;;;4978908;28;20208;-94
2021/10/16 03:09:48;;;;;;;3.40;3.10;;;;;;;;;;4977440;28;20722;-94
2021/10/16 03:12:16;;;;;;;3.43;3.13;;;;;;;;;;4977258;28;20216;-92
2021/10/16 03:14:53;;;;;;;3.47;3.20;;;;;;;;;;4978922;28;20237;-96
2021/10/16 03:17:20;;;;;;;3.50;3.20;;;;;;;;;;5613248;23;20228;-94
2021/10/16 03:19:48;;;;;;;3.20;3.00;;;;;;;;;;4977559;28;20224;-95
2021/10/16 03:22:15;;;;;;;3.83;3.53;;;;;;;;;;4976257;28;20248;-95
2021/10/16 03:24:44;;;;;;;5.53;5.03;;;;;;;;;;4976397;28;20227;-95
2021/10/16 03:27:11;;;;;;;4.93;4.63;;;;;;;;;;4976420;28;20287;-93
2021/10/16 03:29:39;;;;;;;3.63;3.33;;;;;;;;;;4976480;28;20263;-96
2021/10/16 03:32:07;;;;;;;4.37;4.07;;;;;;;;;;4976851;28;20264;-95
2021/10/16 03:34:45;;;;;;;4.00;3.70;;;;;;;;;;4985701;28;20213;-96
2021/10/16 03:37:16;;;;;;;2.80;2.60;;;;;;;;;;4989809;28;20218;-96
2021/10/16 03:39:45;;;;;;;2.77;2.60;;;;;;;;;;4987777;28;20259;-96
2021/10/16 03:42:12;;;;;;;2.43;2.23;;;;;;;;;;4980452;28;20265;-94
2021/10/16 03:44:40;;;;;;;2.60;2.17;;;;;;;;;;4976240;28;20267;-94
2021/10/16 03:47:07;;;;;;;2.90;2.57;;;;;;;;;;4976749;28;20267;-95
2021/10/16 03:49:34;;;;;;;2.77;2.57;;;;;;;;;;4976363;28;20689;-95
2021/10/16 03:52:04;;;;;;;3.13;2.83;;;;;;;;;;4977132;28;20271;-96
2021/10/16 03:54:32;;;;;;;2.90;2.70;;;;;;;;;;4976811;28;20210;-93
2021/10/16 03:57:01;;;;;;;2.47;2.27;;;;;;;;;;4977135;28;20200;-96
2021/10/16 03:59:28;;;;;;;2.30;2.10;;;;;;;;;;4977841;28;20199;-94
2021/10/16 04:01:57;;;;;;;2.60;2.40;;;;;;;;;;4977444;28;20693;-95
2021/10/16 04:04:25;;;;;;;1.70;1.60;;;;;;;;;;4976918;28;20258;-94
2021/10/16 04:06:52;;;;;;;2.17;2.07;;;;;;;;;;4976839;28;20205;-93
2021/10/16 04:09:20;;;;;;;1.80;1.70;;;;;;;;;;4977389;28;20262;-95
2021/10/16 04:11:47;;;;;;;1.83;1.73;;;;;;;;;;4976091;28;20201;-92
2021/10/16 04:14:16;;;;;;;2.60;2.10;;;;;;;;;;4976624;28;20201;-92
2021/10/16 04:16:44;;;;;;;2.10;2.00;;;;;;;;;;4975528;28;20199;-92
2021/10/16 04:19:11;;;;;;;3.63;2.00;;;;;;;;;;4974955;28;20232;-94
2021/10/16 04:21:39;;;;;;;2.67;2.33;;;;;;;;;;4975125;28;20319;-94
2021/10/16 04:24:06;;;;;;;3.07;2.87;;;;;;;;;;4976441;28;20223;-95
2021/10/16 04:26:34;;;;;;;2.13;2.03;;;;;;;;;;4977732;28;20263;-95
2021/10/16 04:29:05;;;;;;;2.20;2.00;;;;;;;;;;4975872;28;20207;-95
2021/10/16 04:31:37;;;;;;;2.00;1.90;;;;;;;;;;4980281;28;20740;-95
2021/10/16 04:34:06;;;;;;;2.40;2.20;;;;;;;;;;4975244;28;20206;-95
2021/10/16 04:36:34;;;;;;;3.20;2.90;;;;;;;;;;4976476;28;20218;-95
2021/10/16 04:41:46;;;;;;;3.20;3.00;;;;;;;;;;5214670;23;20233;-95
2021/10/16 04:44:13;;;;;;;2.50;2.30;;;;;;;;;;4989598;28;20220;-96
2021/10/16 04:46:49;;;;;;;2.63;2.43;;;;;;;;;;4988567;28;20224;-94
2021/10/16 04:49:23;;;;;;;2.10;2.00;;;;;;;;;;4990246;28;20181;-96
2021/10/16 04:51:55;;;;;;;2.10;2.00;;;;;;;;;;4989868;28;20214;-95
2021/10/16 04:54:26;;;;;;;2.43;2.30;;;;;;;;;;5621930;23;21428;-95
2021/10/16 04:59:58;;;;;;;1.87;1.67;;;;;;;;;;5393396;23;20249;-96
2021/10/16 05:02:32;;;;;;;2.40;2.30;;;;;;;;;;4990133;28;20249;-96
2021/10/16 05:05:00;;;;;;;2.70;2.50;;;;;;;;;;5212650;23;20243;-96
2021/10/16 05:07:28;;;;;;;2.33;2.17;;;;;;;;;;4986462;28;20201;-95
2021/10/16 05:09:55;;;;;;;2.53;2.33;;;;;;;;;;4983280;28;20242;-96
2021/10/16 05:12:22;;;;;;;2.70;2.50;;;;;;;;;;4980914;28;20202;-96
2021/10/16 05:14:50;;;;;;;2.80;2.57;;;;;;;;;;5007438;23;20302;-95
2021/10/16 05:22:29;;;;;;;5.00;4.47;;;;;;;;;;4977049;28;20232;-95
2021/10/16 05:24:56;;;;;;;5.90;5.47;;;;;;;;;;4976617;28;20204;-96
2021/10/16 05:27:24;;;;;;;4.43;4.13;;;;;;;;;;4976756;28;20211;-95
2021/10/16 05:29:51;;;;;;;4.53;4.23;;;;;;;;;;4976551;28;20230;-95
2021/10/16 05:32:19;;;;;;;6.63;4.60;;;;;;;;;;4976477;28;20622;-94
2021/10/16 05:34:46;;;;;;;5.70;5.30;;;;;;;;;;4974923;28;20271;-96
2021/10/16 05:37:14;;;;;;;4.87;3.90;;;;;;;;;;4977753;28;20206;-96
2021/10/16 05:39:51;;;;;;;5.97;5.53;;;;;;;;;;4981747;28;20202;-96
2021/10/16 05:42:19;;;;;;;5.80;5.37;;;;;;;;;;4981896;28;20225;-96
2021/10/16 05:47:29;;;;;;;8.63;8.03;;;;;;;;;;5157864;23;20263;-96
2021/10/16 05:49:56;;;;;;;8.30;7.70;;;;;;;;;;5001529;28;20226;-96
2021/10/16 05:52:24;;;;;;;8.97;8.37;;;;;;;;;;4994675;28;20255;-95
2021/10/16 05:54:53;;;;;;;9.63;8.73;;;;;;;;;;4996630;28;20303;-95
2021/10/16 05:57:20;;;;;;;4.10;3.70;;;;;;;;;;4993631;28;20270;-95
2021/10/16 05:59:48;;;;;;;5.50;5.00;;;;;;;;;;4997204;28;20263;-95
2021/10/16 06:02:16;;;;;;;7.83;7.20;;;;;;;;;;4996813;28;20222;-95
2021/10/16 06:04:43;;;;;;;28.40;25.37;;;;;;;;;;5003903;28;20207;-96
2021/10/16 06:07:15;;;;;;;4.17;3.77;;;;;;;;;;5002526;28;20232;-96
2021/10/16 06:09:42;;;;;;;3.23;2.93;;;;;;;;;;4997865;28;20203;-96
2021/10/16 06:12:14;;;;;;;2.43;2.23;;;;;;;;;;5005390;28;20196;-96
2021/10/16 06:14:43;;;;;;;2.67;2.20;;;;;;;;;;4980196;28;20279;-95
2021/10/16 06:17:10;;;;;;;4.37;3.97;;;;;;;;;;4973954;28;20207;-94
2021/10/16 06:19:39;;;;;;;3.27;2.40;;;;;;;;;;4973773;28;20216;-93
2021/10/16 06:22:06;;;;;;;3.57;3.27;;;;;;;;;;4973518;28;20231;-95
2021/10/16 06:24:34;;;;;;;3.20;2.90;;;;;;;;;;4973883;28;20682;-94
2021/10/16 06:27:01;;;;;;;3.43;3.13;;;;;;;;;;4974052;28;20291;-93
2021/10/16 06:29:30;;;;;;;4.00;2.97;;;;;;;;;;4973863;28;20589;-92
2021/10/16 06:31:57;;;;;;;3.20;3.00;;;;;;;;;;4973669;28;20217;-94
2021/10/16 06:34:24;;;;;;;10.73;9.83;;;;;;;;;;4973512;28;20201;-93
2021/10/16 06:36:51;;;;;;;4.80;4.40;;;;;;;;;;4973556;28;20212;-93
2021/10/16 06:39:19;;;;;;;4.03;3.73;;;;;;;;;;4973709;28;20228;-94
2021/10/16 06:41:46;;;;;;;4.30;4.00;;;;;;;;;;4973518;28;20241;-93
2021/10/16 06:44:14;;;;;;;2.80;2.60;;;;;;;;;;4980058;28;20225;-96
2021/10/16 06:46:42;;;;;;;3.00;2.70;;;;;;;;;;4977533;28;20294;-94
2021/10/16 06:52:23;;;;;;;3.53;2.90;;;;;;;;;;4851838;29;20199;-93
2021/10/16 06:54:51;;;;;;;4.60;2.90;;;;;;;;;;4954415;29;20269;-93
2021/10/16 07:01:06;;;;;;;2.70;2.50;;;;;;;;;;4949634;29;20229;-95
2021/10/16 07:03:35;;;;;;;3.23;2.93;;;;;;;;;;4957575;29;20235;-94
2021/10/16 07:06:02;;;;;;;5.33;4.83;;;;;;;;;;4957509;29;20202;-94
2021/10/16 07:08:30;;;;;;;9.40;8.27;;;;;;;;;;4957326;29;20280;-95
2021/10/16 07:10:57;;;;;;;6.33;5.83;;;;;;;;;;4957426;29;20285;-94
2021/10/16 07:13:25;;;;;;;3.20;2.97;;;;;;;;;;4957153;29;20211;-96
2021/10/16 07:15:52;;;;;;;3.47;3.27;;;;;;;;;;4957370;29;20212;-94
2021/10/16 07:18:19;;;;;;;3.10;2.90;;;;;;;;;;4957216;29;20214;-95
2021/10/16 07:20:48;;;;;;;3.47;3.10;;;;;;;;;;4957334;29;20234;-94
2021/10/16 07:23:20;;;;;;;2.70;2.60;;;;;;;;;;4957534;29;20203;-94
2021/10/16 07:25:47;;;;;;;3.63;3.00;;;;;;;;;;4957313;29;20628;-94
2021/10/16 07:28:31;;;;;;;3.27;3.00;;;;;;;;;;4965564;28;20208;-96
2021/10/16 07:30:59;;;;;;;3.73;3.53;;;;;;;;;;4985879;28;20647;-95
2021/10/16 07:33:29;;;;;;;3.70;3.40;;;;;;;;;;4990574;28;20232;-96
2021/10/16 07:36:04;;;;;;;7.53;6.83;;;;;;;;;;4994792;28;20197;-96
2021/10/16 07:41:06;;;;;;;2.90;2.10;;;;;;;;;;5111598;23;20253;-96
2021/10/16 07:43:34;;;;;;;2.10;1.87;;;;;;;;;;4949515;28;20202;-96
2021/10/16 07:46:22;;;;;;;2.10;1.90;;;;;;;;;;4957607;28;20199;-96
2021/10/16 07:48:59;;;;;;;2.40;2.27;;;;;;;;;;5387703;23;20308;-96
2021/10/16 07:51:31;;;;;;;2.23;2.10;;;;;;;;;;4953267;29;20568;-96
2021/10/16 07:54:09;;;;;;;2.40;2.20;;;;;;;;;;4969786;29;20259;-96
2021/10/16 07:56:36;;;;;;;2.60;2.40;;;;;;;;;;4936889;29;20205;-94
2021/10/16 07:59:04;;;;;;;3.83;3.53;;;;;;;;;;4957173;29;20202;-95
2021/10/16 08:01:31;;;;;;;3.43;3.13;;;;;;;;;;4958883;29;20305;-95
2021/10/16 08:03:59;;;;;;;3.97;3.33;;;;;;;;;;4960686;29;20284;-96
2021/10/16 08:06:29;;;;;;;2.10;2.00;;;;;;;;;;4963858;29;20237;-96
2021/10/16 08:08:57;;;;;;;3.87;3.57;;;;;;;;;;4967535;28;20193;-95
2021/10/16 08:11:24;;;;;;;14.23;13.13;;;;;;;;;;4958066;29;20198;-93
2021/10/16 08:13:52;;;;;;;7.30;6.80;;;;;;;;;;4964936;29;20217;-95
2021/10/16 08:16:19;;;;;;;4.10;3.83;;;;;;;;;;4967553;29;20238;-96
2021/10/16 08:18:46;;;;;;;2.53;2.33;;;;;;;;;;4963114;29;20214;-94
2021/10/16 08:21:14;;;;;;;2.13;1.97;;;;;;;;;;4958341;29;20228;-95
2021/10/16 08:23:43;;;;;;;2.07;1.97;;;;;;;;;;4958599;29;20309;-96
2021/10/16 08:26:10;;;;;;;2.37;2.27;;;;;;;;;;4948504;29;20204;-96
2021/10/16 08:28:37;;;;;;;2.80;2.60;;;;;;;;;;4943912;29;20219;-96
2021/10/16 08:31:14;;;;;;;3.77;3.47;;;;;;;;;;4951223;29;20210;-96
2021/10/16 08:33:46;;;;;;;2.53;2.03;;;;;;;;;;4951814;29;20239;-96
2021/10/16 08:36:14;;;;;;;2.60;2.40;;;;;;;;;;4953233;29;20210;-96
2021/10/16 08:38:46;;;;;;;2.30;2.10;;;;;;;;;;4947968;29;20207;-96
2021/10/16 08:41:14;;;;;;;1.70;1.60;;;;;;;;;;4947909;29;20226;-94
2021/10/16 08:43:42;;;;;;;3.97;3.77;;;;;;;;;;4940642;29;20213;-96
2021/10/16 08:46:09;;;;;;;2.57;2.30;;;;;;;;;;4938782;29;20290;-95
2021/10/16 08:48:40;;;;;;;2.40;2.30;;;;;;;;;;4939434;28;20218;-96
2021/10/16 08:51:08;;;;;;;3.07;2.67;;;;;;;;;;4961991;29;20198;-96
2021/10/16 08:53:36;;;;;;;3.50;2.73;;;;;;;;;;4960093;28;20202;-96
2021/10/16 08:56:05;;;;;;;3.23;2.60;;;;;;;;;;4956231;29;20285;-96
2021/10/16 08:58:33;;;;;;;3.27;2.53;;;;;;;;;;4963765;29;20645;-96
2021/10/16 09:01:02;;;;;;;2.90;2.33;;;;;;;;;;4971486;29;20191;-96
2021/10/16 09:03:33;;;;;;;2.63;2.43;;;;;;;;;;4959131;29;20329;-95
2021/10/16 09:06:05;;;;;;;1.77;1.67;;;;;;;;;;4963149;29;20210;-93
2021/10/16 09:08:34;;;;;;;1.90;1.57;;;;;;;;;;4955337;29;20288;-94
2021/10/16 09:11:28;;;;;;;1.43;1.37;;;;;;;;;;4955394;29;20207;-93
2021/10/16 09:14:00;;;;;;;2.73;2.53;;;;;;;;;;4955154;29;20368;-92
2021/10/16 09:16:33;;;;;;;3.30;2.30;;;;;;;;;;4955285;29;20217;-93
2021/10/16 09:19:05;;;;;;;1.60;1.50;;;;;;;;;;4954762;28;20557;-93
2021/10/16 09:21:34;;;;;;;2.93;1.90;;;;;;;;;;4955072;29;20312;-93
2021/10/16 09:24:10;;;;;;;2.23;2.13;;;;;;;;;;4954703;29;20206;-94
2021/10/16 09:26:41;;;;;;;6.47;5.90;;;;;;;;;;4955050;29;20215;-93
2021/10/16 09:29:10;;;;;;;2.63;2.43;;;;;;;;;;4956196;29;20198;-96
2021/10/16 09:31:39;;;;;;;2.03;1.93;;;;;;;;;;4955119;29;20212;-93
2021/10/16 09:34:07;;;;;;;1.70;1.60;;;;;;;;;;4958914;28;20232;-96
2021/10/16 09:36:36;;;;;;;2.80;2.57;;;;;;;;;;4955065;29;20202;-94
2021/10/16 09:39:05;;;;;;;1.93;1.80;;;;;;;;;;4961766;29;20186;-95
2021/10/16 09:41:35;;;;;;;1.83;1.73;;;;;;;;;;4961535;29;20226;-96
2021/10/16 09:44:05;;;;;;;1.50;1.40;;;;;;;;;;4958310;29;20580;-96
2021/10/16 09:46:33;;;;;;;1.93;1.50;;;;;;;;;;4956727;29;20649;-95
2021/10/16 09:49:08;;;;;;;2.30;1.50;;;;;;;;;;4956746;28;20242;-92
2021/10/16 09:51:50;;;;;;;2.37;2.20;;;;;;;;;;4957785;29;20588;-96
2021/10/16 09:54:18;;;;;;;1.60;1.50;;;;;;;;;;4956026;29;20271;-95
2021/10/16 09:56:47;;;;;;;1.50;1.40;;;;;;;;;;4957330;29;20202;-92
2021/10/16 09:59:20;;;;;;;1.70;1.60;;;;;;;;;;4957685;29;20205;-91
2021/10/16 10:01:48;;;;;;;2.60;2.40;;;;;;;;;;4954835;29;20229;-91
2021/10/16 10:04:18;;;;;;;2.50;2.30;;;;;;;;;;4954805;29;20641;-92
2021/10/16 10:06:46;;;;;;;1.70;1.60;;;;;;;;;;4954909;29;20602;-93
2021/10/16 10:09:14;;;;;;;2.30;1.90;;;;;;;;;;4954490;29;20201;-92
2021/10/16 10:11:45;;;;;;;2.70;2.10;;;;;;;;;;4954613;29;20758;-92
2021/10/16 10:14:13;;;;;;;1.80;1.70;;;;;;;;;;4954718;29;20262;-91
2021/10/16 10:16:43;;;;;;;1.30;1.20;;;;;;;;;;4954662;29;20221;-91
2021/10/16 10:19:11;;;;;;;2.27;1.53;;;;;;;;;;4954512;29;20212;-91
2021/10/16 10:21:39;;;;;;;1.27;1.17;;;;;;;;;;4954642;29;20663;-91
2021/10/16 10:24:08;;;;;;;1.80;1.70;;;;;;;;;;4954679;29;20230;-90
2021/10/16 10:26:37;;;;;;;1.93;1.80;;;;;;;;;;4954366;29;20210;-91
2021/10/16 10:29:05;;;;;;;2.50;2.30;;;;;;;;;;4954226;29;20229;-92
2021/10/16 10:32:05;;;;;;;2.00;1.90;;;;;;;;;;4955334;28;20233;-90
2021/10/16 10:34:38;;;;;;;1.00;1.00;;;;;;;;;;4955115;29;20670;-90
2021/10/16 10:37:08;;;;;;;1.40;1.30;;;;;;;;;;4958173;29;20190;-92
2021/10/16 10:39:48;;;;;;;1.60;1.43;;;;;;;;;;4958211;29;20194;-91
2021/10/16 10:42:51;;;;;;;1.30;1.20;;;;;;;;;;4958014;29;20576;-91
2021/10/16 10:45:28;;;;;;;2.07;1.53;;;;;;;;;;4957928;29;20229;-91
2021/10/16 10:48:01;;;;;;;1.57;1.47;;;;;;;;;;4958079;29;20314;-90
2021/10/16 10:50:53;;;;;;;1.50;1.27;;;;;;;;;;4957487;28;20234;-90
2021/10/16 10:53:39;;;;;;;2.90;2.20;;;;;;;;;;4952108;28;20198;-91
2021/10/16 10:56:09;;;;;;;1.40;1.30;;;;;;;;;;4957382;29;20229;-91
2021/10/16 10:59:00;;;;;;;1.73;1.63;;;;;;;;;;4957478;29;20553;-91
2021/10/16 11:02:05;;;;;;;1.03;1.03;;;;;;;;;;4957534;29;20194;-91
2021/10/16 11:04:40;;;;;;;1.57;1.47;;;;;;;;;;4957704;29;20726;-92
2021/10/16 11:07:11;;;;;;;1.47;1.37;;;;;;;;;;4957628;29;20745;-90
2021/10/16 11:09:40;;;;;;;1.23;1.17;;;;;;;;;;4957284;29;20284;-91
2021/10/16 11:12:08;;;;;;;1.33;1.30;;;;;;;;;;4957410;29;20197;-92
2021/10/16 11:14:36;;;;;;;1.17;1.10;;;;;;;;;;4957202;29;20198;-89
2021/10/16 11:17:05;;;;;;;2.60;2.40;;;;;;;;;;4957253;29;20205;-90
2021/10/16 11:19:47;;;;;;;1.93;1.83;;;;;;;;;;4957698;29;20202;-91
2021/10/16 11:22:16;;;;;;;1.80;1.70;;;;;;;;;;4957471;29;20300;-90
2021/10/16 11:24:44;;;;;;;1.50;1.40;;;;;;;;;;4957053;29;20202;-92
2021/10/16 11:27:11;;;;;;;1.10;1.00;;;;;;;;;;4957199;29;20206;-91
2021/10/16 11:29:41;;;;;;;2.97;2.67;;;;;;;;;;4956956;29;20589;-92
2021/10/16 11:32:13;;;;;;;2.67;1.90;;;;;;;;;;4957208;29;20667;-91
2021/10/16 11:34:41;;;;;;;3.50;3.17;;;;;;;;;;4957276;29;20201;-91
2021/10/16 11:37:08;;;;;;;13.90;12.60;;;;;;;;;;4956528;29;20205;-91
2021/10/16 11:39:37;;;;;;;4.13;3.83;;;;;;;;;;4956942;29;20226;-91
2021/10/16 11:42:05;;;;;;;3.33;3.13;;;;;;;;;;4956248;28;20202;-90
2021/10/16 11:44:32;;;;;;;1.27;1.17;;;;;;;;;;4938161;29;20293;-90
2021/10/16 11:47:05;;;;;;;1.20;1.20;;;;;;;;;;4937697;29;20561;-90
2021/10/16 11:49:32;;;;;;;1.33;1.00;;;;;;;;;;4937351;29;20241;-91
2021/10/16 11:52:00;;;;;;;1.10;1.10;;;;;;;;;;4937409;29;20266;-89
2021/10/16 11:54:28;;;;;;;1.00;1.00;;;;;;;;;;4937309;29;20282;-89
2021/10/16 11:57:00;;;;;;;1.27;0.83;;;;;;;;;;4937280;29;20258;-90
2021/10/16 11:59:27;;;;;;;0.90;0.90;;;;;;;;;;4937534;29;20639;-90
2021/10/16 12:01:54;;;;;;;1.00;0.80;;;;;;;;;;4937120;29;20213;-90
2021/10/16 12:04:22;;;;;;;1.70;1.03;;;;;;;;;;4937420;29;20209;-89
2021/10/16 12:06:50;;;;;;;2.00;0.83;;;;;;;;;;4937034;29;20293;-90
2021/10/16 12:09:19;;;;;;;0.90;0.90;;;;;;;;;;4937363;29;20202;-90
2021/10/16 12:11:47;;;;;;;0.90;0.90;;;;;;;;;;4936926;29;20265;-89
2021/10/16 12:14:22;;;;;;;1.27;1.17;;;;;;;;;;4937125;29;20619;-90
2021/10/16 12:16:49;;;;;;;6.93;4.77;;;;;;;;;;4936935;29;20194;-90
2021/10/16 12:19:18;;;;;;;2.27;1.30;;;;;;;;;;4936823;29;20266;-90
2021/10/16 12:21:47;;;;;;;1.17;1.10;;;;;;;;;;4936786;29;20253;-85
2021/10/16 12:24:16;;;;;;;1.40;1.30;;;;;;;;;;4936992;29;20253;-86
2021/10/16 12:26:45;;;;;;;1.40;1.30;;;;;;;;;;4937180;29;20579;-87
2021/10/16 12:29:27;;;;;;;1.60;1.50;;;;;;;;;;4937190;29;20687;-88
2021/10/16 12:31:56;;;;;;;2.40;2.20;;;;;;;;;;4937139;29;20209;-87
2021/10/16 12:34:24;;;;;;;1.80;1.70;;;;;;;;;;4936659;29;20205;-87
2021/10/16 12:36:54;;;;;;;3.37;3.07;;;;;;;;;;4939456;29;20300;-87
2021/10/16 12:39:28;;;;;;;1.50;1.40;;;;;;;;;;4954927;29;20194;-87
2021/10/16 12:41:56;;;;;;;1.50;1.40;;;;;;;;;;4955399;29;20198;-88
2021/10/16 12:44:26;;;;;;;2.87;2.57;;;;;;;;;;4955265;29;20222;-87
2021/10/16 12:47:10;;;;;;;2.50;2.30;;;;;;;;;;4955560;29;20189;-89
2021/10/16 12:49:40;;;;;;;1.80;1.70;;;;;;;;;;4949949;29;20237;-88
2021/10/16 12:52:29;;;;;;;1.27;1.20;;;;;;;;;;4955607;29;20209;-88
2021/10/16 12:54:58;;;;;;;1.47;1.37;;;;;;;;;;4954349;28;20225;-87
2021/10/16 12:57:25;;;;;;;0.83;0.83;;;;;;;;;;4955294;29;20206;-88
2021/10/16 12:59:53;;;;;;;1.90;1.03;;;;;;;;;;4955203;29;20260;-86
2021/10/16 13:02:22;;;;;;;2.00;1.80;;;;;;;;;;4955022;29;20217;-89
2021/10/16 13:04:50;;;;;;;1.60;1.50;;;;;;;;;;4955525;29;20205;-93
2021/10/16 13:07:18;;;;;;;1.50;1.40;;;;;;;;;;4955258;29;20210;-93
2021/10/16 13:09:46;;;;;;;1.50;1.30;;;;;;;;;;4955306;29;20202;-90
2021/10/16 13:12:14;;;;;;;0.93;0.93;;;;;;;;;;4946294;29;20735;-93
2021/10/16 13:14:42;;;;;;;1.37;0.90;;;;;;;;;;4936712;29;20203;-90
2021/10/16 13:17:09;;;;;;;1.70;1.60;;;;;;;;;;4935740;29;20297;-93
2021/10/16 13:19:39;;;;;;;96.20;72.20;;;;;;;;;;4936043;29;20230;-91
2021/10/16 13:22:06;;;;;;;266.07;218.10;;;;;;;;;;4935775;29;20289;-92
2021/10/16 13:24:33;;;;;;;217.13;195.30;;;;;;;;;;4935679;29;20380;-92
2021/10/16 13:27:00;;;;;;;81.63;76.07;;;;;;;;;;4935467;29;20299;-91
2021/10/16 13:29:28;;;;;;;152.20;140.83;;;;;;;;;;4936714;29;20691;-90
2021/10/16 13:31:55;;;;;;;267.97;195.07;;;;;;;;;;4936417;29;20624;-90
2021/10/16 13:34:23;;;;;;;17.50;14.83;;;;;;;;;;4937866;29;20216;-91
2021/10/16 13:36:54;;;;;;;51.63;39.73;;;;;;;;;;4938628;29;20209;-90
2021/10/16 13:39:21;;;;;;;4.27;3.90;;;;;;;;;;4955478;29;20285;-89
2021/10/16 13:41:49;;;;;;;5.77;5.23;;;;;;;;;;4955007;29;20198;-89
2021/10/16 13:44:17;;;;;;;2.27;2.07;;;;;;;;;;4954807;29;20230;-88
2021/10/16 13:46:44;;;;;;;2.83;2.63;;;;;;;;;;4954807;29;20197;-88
2021/10/16 13:49:11;;;;;;;1.43;1.33;;;;;;;;;;4954824;28;20233;-90
2021/10/16 13:51:39;;;;;;;5.20;4.90;;;;;;;;;;4954685;29;20206;-90
2021/10/16 13:54:08;;;;;;;3.80;3.60;;;;;;;;;;4954699;29;20202;-90
2021/10/16 13:56:36;;;;;;;1.93;1.80;;;;;;;;;;4954709;29;20666;-88
2021/10/16 13:59:03;;;;;;;1.43;1.33;;;;;;;;;;4954780;29;20200;-91
2021/10/16 14:01:31;;;;;;;3.03;2.83;;;;;;;;;;4954955;29;20697;-91
2021/10/16 14:03:58;;;;;;;1.17;1.17;;;;;;;;;;4954586;29;20317;-92
2021/10/16 14:06:25;;;;;;;2.47;2.27;;;;;;;;;;4956994;28;20586;-91
2021/10/16 14:08:52;;;;;;;1.20;1.10;;;;;;;;;;4958557;29;20202;-92
2021/10/16 14:11:22;;;;;;;1.90;1.80;;;;;;;;;;4958607;29;20198;-93
2021/10/16 14:13:49;;;;;;;1.20;1.10;;;;;;;;;;4958542;29;20224;-93
2021/10/16 14:16:17;;;;;;;1.40;1.30;;;;;;;;;;4958249;29;20670;-92
2021/10/16 14:18:46;;;;;;;1.43;1.40;;;;;;;;;;4958319;29;20292;-90
2021/10/16 14:21:13;;;;;;;2.43;2.30;;;;;;;;;;4957987;29;20198;-88
2021/10/16 14:23:41;;;;;;;1.17;1.07;;;;;;;;;;4957986;29;20230;-88
2021/10/16 14:26:09;;;;;;;8.33;7.70;;;;;;;;;;4957991;29;20205;-89
2021/10/16 14:28:37;;;;;;;3.97;3.67;;;;;;;;;;4958061;29;20205;-88
2021/10/16 14:31:06;;;;;;;4.20;3.90;;;;;;;;;;4958029;29;20200;-89
2021/10/16 14:33:35;;;;;;;9.10;8.37;;;;;;;;;;4957982;29;20256;-88
2021/10/16 14:36:02;;;;;;;6.17;5.57;;;;;;;;;;4958204;29;20202;-89
2021/10/16 14:38:29;;;;;;;1.50;1.40;;;;;;;;;;4958170;29;20205;-89
2021/10/16 14:40:56;;;;;;;7.47;6.77;;;;;;;;;;4957632;29;20237;-90
2021/10/16 14:43:24;;;;;;;3.20;3.00;;;;;;;;;;4957966;29;20236;-89
2021/10/16 14:45:53;;;;;;;3.77;3.40;;;;;;;;;;4957667;29;20237;-88
2021/10/16 14:48:20;;;;;;;1.07;1.07;;;;;;;;;;4957552;29;20675;-89
2021/10/16 14:50:47;;;;;;;4.50;3.80;;;;;;;;;;4957388;28;20233;-89
2021/10/16 14:53:20;;;;;;;18.97;17.13;;;;;;;;;;4957501;29;20198;-90
2021/10/16 14:55:48;;;;;;;9.00;8.27;;;;;;;;;;4957255;29;20270;-89
2021/10/16 14:58:15;;;;;;;4.50;4.10;;;;;;;;;;4957770;29;20236;-90
2021/10/16 15:00:42;;;;;;;2.10;2.00;;;;;;;;;;4957545;29;20202;-89
2021/10/16 15:03:11;;;;;;;6.07;5.47;;;;;;;;;;4957494;29;20263;-89
2021/10/16 15:05:38;;;;;;;5.43;4.33;;;;;;;;;;4957374;29;20750;-89
2021/10/16 15:08:05;;;;;;;2.37;2.17;;;;;;;;;;4958008;29;20241;-88
2021/10/16 15:10:33;;;;;;;2.80;2.60;;;;;;;;;;4957237;29;20725;-89
2021/10/16 15:13:01;;;;;;;2.40;2.10;;;;;;;;;;4957213;29;20201;-89
2021/10/16 15:15:28;;;;;;;3.23;2.93;;;;;;;;;;4957542;29;20194;-89
2021/10/16 15:17:55;;;;;;;4.50;3.33;;;;;;;;;;4956365;28;20230;-90
2021/10/16 15:20:24;;;;;;;3.90;2.70;;;;;;;;;;4957157;29;20292;-89
2021/10/16 15:22:51;;;;;;;1.60;1.50;;;;;;;;;;4957154;29;20651;-90
2021/10/16 15:25:18;;;;;;;1.57;1.47;;;;;;;;;;4956684;29;20272;-89
2021/10/16 15:27:46;;;;;;;2.10;1.90;;;;;;;;;;4957126;29;20694;-90
2021/10/16 15:30:13;;;;;;;1.33;1.23;;;;;;;;;;4956688;29;20292;-89
2021/10/16 15:32:40;;;;;;;1.87;1.60;;;;;;;;;;4956951;29;20201;-89
2021/10/16 15:35:08;;;;;;;2.57;2.37;;;;;;;;;;4957042;29;20220;-90
2021/10/16 15:37:37;;;;;;;1.23;1.13;;;;;;;;;;4956705;29;20218;-89
2021/10/16 15:40:05;;;;;;;1.40;1.30;;;;;;;;;;4956683;29;20201;-90
2021/10/16 15:42:32;;;;;;;1.00;0.90;;;;;;;;;;4956850;29;20209;-89
2021/10/16 15:44:59;;;;;;;1.57;0.70;;;;;;;;;;4956520;29;20230;-88
2021/10/16 15:47:27;;;;;;;1.60;1.47;;;;;;;;;;4956295;29;20221;-90
2021/10/16 15:49:54;;;;;;;1.37;1.20;;;;;;;;;;4956439;29;20237;-89
2021/10/16 15:52:21;;;;;;;1.23;1.13;;;;;;;;;;4956867;29;20232;-89
2021/10/16 15:54:50;;;;;;;3.17;2.87;;;;;;;;;;4956430;29;20200;-89
2021/10/16 15:57:17;;;;;;;2.33;2.13;;;;;;;;;;4956660;29;20198;-90
2021/10/16 15:59:44;;;;;;;1.20;1.10;;;;;;;;;;4956341;29;20233;-89
2021/10/16 16:02:12;;;;;;;1.60;1.50;;;;;;;;;;4956430;29;20201;-88
2021/10/16 16:04:39;;;;;;;1.90;1.00;;;;;;;;;;4956172;29;20612;-90
2021/10/16 16:07:07;;;;;;;1.10;1.10;;;;;;;;;;4956660;29;20651;-88
2021/10/16 16:09:35;;;;;;;1.00;1.00;;;;;;;;;;4956533;29;20201;-89
2021/10/16 16:12:04;;;;;;;1.40;1.30;;;;;;;;;;4956225;29;20229;-89
2021/10/16 16:14:31;;;;;;;1.70;1.40;;;;;;;;;;4956328;29;20326;-89
2021/10/16 16:16:58;;;;;;;2.37;1.47;;;;;;;;;;4956264;29;20597;-88
2021/10/16 16:19:26;;;;;;;2.53;2.23;;;;;;;;;;4956648;29;20256;-88
2021/10/16 16:21:54;;;;;;;2.60;1.70;;;;;;;;;;4956156;29;20217;-88
2021/10/16 16:24:22;;;;;;;2.00;1.80;;;;;;;;;;4955820;29;20229;-89
2021/10/16 16:26:49;;;;;;;1.57;1.47;;;;;;;;;;4956191;29;20225;-90
2021/10/16 16:29:18;;;;;;;5.00;1.90;;;;;;;;;;4955807;28;20213;-88
2021/10/16 16:31:46;;;;;;;2.07;1.40;;;;;;;;;;4955925;29;20256;-89
2021/10/16 16:34:13;;;;;;;1.53;1.43;;;;;;;;;;4955682;29;20201;-88
2021/10/16 16:36:40;;;;;;;3.53;3.23;;;;;;;;;;4955853;29;20293;-89
2021/10/16 16:39:08;;;;;;;12.40;11.20;;;;;;;;;;4955852;29;20201;-89
2021/10/16 16:41:35;;;;;;;10.27;9.37;;;;;;;;;;4956036;29;20269;-89
2021/10/16 16:44:05;;;;;;;17.27;15.70;;;;;;;;;;4955629;29;20233;-88
2021/10/16 16:46:34;;;;;;;5.23;4.73;;;;;;;;;;4955611;29;20257;-89
2021/10/16 16:49:01;;;;;;;6.43;5.93;;;;;;;;;;4955263;29;20229;-89
2021/10/16 16:51:28;;;;;;;1.50;1.40;;;;;;;;;;4955895;29;20570;-89
2021/10/16 16:53:56;;;;;;;3.80;2.33;;;;;;;;;;4955571;29;20264;-89
2021/10/16 16:56:23;;;;;;;3.03;2.80;;;;;;;;;;4955359;29;20284;-89
2021/10/16 16:58:50;;;;;;;2.50;2.30;;;;;;;;;;4954971;29;20198;-89
2021/10/16 17:01:18;;;;;;;3.53;3.23;;;;;;;;;;4955447;29;20633;-89
2021/10/16 17:03:47;;;;;;;4.30;3.20;;;;;;;;;;4955397;29;20643;-89
2021/10/16 17:06:14;;;;;;;4.67;4.27;;;;;;;;;;4956138;29;20202;-90
2021/10/16 17:08:41;;;;;;;2.10;1.90;;;;;;;;;;4955473;29;20663;-89
2021/10/16 17:11:09;;;;;;;1.33;1.23;;;;;;;;;;4955378;29;20201;-88
2021/10/16 17:13:36;;;;;;;2.87;2.63;;;;;;;;;;4954826;29;20609;-89
2021/10/16 17:16:03;;;;;;;1.50;1.40;;;;;;;;;;4955045;29;21087;-89
2021/10/16 17:18:31;;;;;;;0.57;0.57;;;;;;;;;;4954843;29;20240;-89